sensor_id;sensor_type;location;lat;lon;timestamp;temperature;humidity
36002;DHT22;22070;50.922;5.430;2023-04-06T00:00:39;4.70;99.90
36002;DHT22;22070;50.922;5.430;2023-04-06T00:03:05;4.60;99.90
36002;DHT22;22070;50.922;5.430;2023-04-06T00:05:31;4.60;99.90
36002;DHT22;22070;50.922;5.430;2023-04-06T00:07:58;4.60;99.90
36002;DHT22;22070;50.922;5.430;2023-04-06T00:10:24;4.40;99.90
36002;DHT22;22070;50.922;5.430;2023-04-06T00:12:50;4.40;99.90
36002;DHT22;22070;50.922;5.430;2023-04-06T00:15:15;4.40;99.90
36002;DHT22;22070;50.922;5.430;2023-04-06T00:17:41;4.30;99.90
36002;DHT22;22070;50.922;5.430;2023-04-06T00:20:07;4.40;99.90
36002;DHT22;22070;50.922;5.430;2023-04-06T00:22:33;4.50;99.90
36002;DHT22;22070;50.922;5.430;2023-04-06T00:24:59;4.40;99.90
36002;DHT22;22070;50.922;5.430;2023-04-06T00:27:25;4.30;99.90
36002;DHT22;22070;50.922;5.430;2023-04-06T00:29:51;4.20;99.90
36002;DHT22;22070;50.922;5.430;2023-04-06T00:32:16;4.10;99.90
36002;DHT22;22070;50.922;5.430;2023-04-06T00:34:42;4.00;99.90
36002;DHT22;22070;50.922;5.430;2023-04-06T00:37:08;3.90;99.90
36002;DHT22;22070;50.922;5.430;2023-04-06T00:39:33;4.00;99.90
36002;DHT22;22070;50.922;5.430;2023-04-06T00:41:59;4.00;99.90
36002;DHT22;22070;50.922;5.430;2023-04-06T00:44:25;4.10;99.90
36002;DHT22;22070;50.922;5.430;2023-04-06T00:46:52;4.00;99.90
36002;DHT22;22070;50.922;5.430;2023-04-06T00:49:18;3.90;99.90
36002;DHT22;22070;50.922;5.430;2023-04-06T00:51:44;3.80;99.90
36002;DHT22;22070;50.922;5.430;2023-04-06T00:54:09;3.80;99.90
36002;DHT22;22070;50.922;5.430;2023-04-06T00:56:35;3.90;99.90
36002;DHT22;22070;50.922;5.430;2023-04-06T00:59:01;3.80;99.90
36002;DHT22;22070;50.922;5.430;2023-04-06T01:01:28;3.90;99.90
36002;DHT22;22070;50.922;5.430;2023-04-06T01:03:54;4.00;99.90
36002;DHT22;22070;50.922;5.430;2023-04-06T01:06:20;4.00;99.90
36002;DHT22;22070;50.922;5.430;2023-04-06T01:08:46;4.10;99.90
36002;DHT22;22070;50.922;5.430;2023-04-06T01:11:12;4.00;99.90
36002;DHT22;22070;50.922;5.430;2023-04-06T01:13:38;3.80;99.90
36002;DHT22;22070;50.922;5.430;2023-04-06T01:16:04;3.70;99.90
36002;DHT22;22070;50.922;5.430;2023-04-06T01:18:30;3.60;99.90
36002;DHT22;22070;50.922;5.430;2023-04-06T01:20:55;3.70;99.90
36002;DHT22;22070;50.922;5.430;2023-04-06T01:23:21;3.70;99.90
36002;DHT22;22070;50.922;5.430;2023-04-06T01:25:47;3.60;99.90
36002;DHT22;22070;50.922;5.430;2023-04-06T01:28:12;3.50;99.90
36002;DHT22;22070;50.922;5.430;2023-04-06T01:30:38;3.50;99.90
36002;DHT22;22070;50.922;5.430;2023-04-06T01:33:04;3.50;99.90
36002;DHT22;22070;50.922;5.430;2023-04-06T01:35:30;3.50;99.90
36002;DHT22;22070;50.922;5.430;2023-04-06T01:37:56;3.40;99.90
36002;DHT22;22070;50.922;5.430;2023-04-06T01:40:22;3.40;99.90
36002;DHT22;22070;50.922;5.430;2023-04-06T01:42:47;3.30;99.90
36002;DHT22;22070;50.922;5.430;2023-04-06T01:45:13;3.40;99.90
36002;DHT22;22070;50.922;5.430;2023-04-06T01:47:39;3.50;99.90
36002;DHT22;22070;50.922;5.430;2023-04-06T01:50:05;3.60;99.90
36002;DHT22;22070;50.922;5.430;2023-04-06T01:52:33;3.50;99.90
36002;DHT22;22070;50.922;5.430;2023-04-06T01:54:59;3.50;99.90
36002;DHT22;22070;50.922;5.430;2023-04-06T01:57:24;3.60;99.90
36002;DHT22;22070;50.922;5.430;2023-04-06T01:59:51;3.60;99.90
36002;DHT22;22070;50.922;5.430;2023-04-06T02:02:17;3.70;99.90
36002;DHT22;22070;50.922;5.430;2023-04-06T02:04:42;3.50;99.90
36002;DHT22;22070;50.922;5.430;2023-04-06T02:07:08;3.70;99.90
36002;DHT22;22070;50.922;5.430;2023-04-06T02:09:34;3.70;99.90
36002;DHT22;22070;50.922;5.430;2023-04-06T02:12:00;3.50;99.90
36002;DHT22;22070;50.922;5.430;2023-04-06T02:14:27;3.50;99.90
36002;DHT22;22070;50.922;5.430;2023-04-06T02:16:52;3.40;99.90
36002;DHT22;22070;50.922;5.430;2023-04-06T02:19:18;3.40;99.90
36002;DHT22;22070;50.922;5.430;2023-04-06T02:21:44;3.50;99.90
36002;DHT22;22070;50.922;5.430;2023-04-06T02:24:10;3.50;99.90
36002;DHT22;22070;50.922;5.430;2023-04-06T02:26:37;3.40;99.90
36002;DHT22;22070;50.922;5.430;2023-04-06T02:29:03;3.30;99.90
36002;DHT22;22070;50.922;5.430;2023-04-06T02:31:28;3.30;99.90
36002;DHT22;22070;50.922;5.430;2023-04-06T02:33:54;3.40;99.90
36002;DHT22;22070;50.922;5.430;2023-04-06T02:36:20;3.40;99.90
36002;DHT22;22070;50.922;5.430;2023-04-06T02:38:45;3.50;99.90
36002;DHT22;22070;50.922;5.430;2023-04-06T02:41:11;3.40;99.90
36002;DHT22;22070;50.922;5.430;2023-04-06T02:43:37;3.40;99.90
36002;DHT22;22070;50.922;5.430;2023-04-06T02:46:02;3.40;99.90
36002;DHT22;22070;50.922;5.430;2023-04-06T02:48:28;3.50;99.90
36002;DHT22;22070;50.922;5.430;2023-04-06T02:50:54;3.60;99.90
36002;DHT22;22070;50.922;5.430;2023-04-06T02:53:19;3.50;99.90
36002;DHT22;22070;50.922;5.430;2023-04-06T02:55:45;3.50;99.90
36002;DHT22;22070;50.922;5.430;2023-04-06T02:58:11;3.50;99.90
36002;DHT22;22070;50.922;5.430;2023-04-06T03:00:37;3.60;99.90
36002;DHT22;22070;50.922;5.430;2023-04-06T03:03:03;3.80;99.90
36002;DHT22;22070;50.922;5.430;2023-04-06T03:05:28;3.80;99.90
36002;DHT22;22070;50.922;5.430;2023-04-06T03:07:54;3.90;99.90
36002;DHT22;22070;50.922;5.430;2023-04-06T03:10:20;3.90;99.90
36002;DHT22;22070;50.922;5.430;2023-04-06T03:12:45;3.90;99.90
36002;DHT22;22070;50.922;5.430;2023-04-06T03:15:11;4.00;99.90
36002;DHT22;22070;50.922;5.430;2023-04-06T03:17:37;4.00;99.90
36002;DHT22;22070;50.922;5.430;2023-04-06T03:20:03;4.10;99.90
36002;DHT22;22070;50.922;5.430;2023-04-06T03:22:29;4.10;99.90
36002;DHT22;22070;50.922;5.430;2023-04-06T03:24:55;4.20;99.90
36002;DHT22;22070;50.922;5.430;2023-04-06T03:27:21;4.20;99.90
36002;DHT22;22070;50.922;5.430;2023-04-06T03:29:46;4.20;99.90
36002;DHT22;22070;50.922;5.430;2023-04-06T03:32:12;4.20;99.90
36002;DHT22;22070;50.922;5.430;2023-04-06T03:34:38;4.20;99.90
36002;DHT22;22070;50.922;5.430;2023-04-06T03:37:04;4.20;99.90
36002;DHT22;22070;50.922;5.430;2023-04-06T03:39:30;4.10;99.90
36002;DHT22;22070;50.922;5.430;2023-04-06T03:41:56;4.30;99.90
36002;DHT22;22070;50.922;5.430;2023-04-06T03:44:21;4.20;99.90
36002;DHT22;22070;50.922;5.430;2023-04-06T03:46:47;4.20;99.90
36002;DHT22;22070;50.922;5.430;2023-04-06T03:49:13;4.10;99.90
36002;DHT22;22070;50.922;5.430;2023-04-06T03:51:38;4.20;99.90
36002;DHT22;22070;50.922;5.430;2023-04-06T03:54:04;4.20;99.90
36002;DHT22;22070;50.922;5.430;2023-04-06T03:56:30;4.20;99.90
36002;DHT22;22070;50.922;5.430;2023-04-06T03:58:56;4.20;99.90
36002;DHT22;22070;50.922;5.430;2023-04-06T04:01:22;4.20;99.90
36002;DHT22;22070;50.922;5.430;2023-04-06T04:03:47;4.10;99.90
36002;DHT22;22070;50.922;5.430;2023-04-06T04:06:13;4.20;99.90
36002;DHT22;22070;50.922;5.430;2023-04-06T04:08:38;4.20;99.90
36002;DHT22;22070;50.922;5.430;2023-04-06T04:11:04;4.30;99.90
36002;DHT22;22070;50.922;5.430;2023-04-06T04:13:30;4.20;99.90
36002;DHT22;22070;50.922;5.430;2023-04-06T04:15:55;4.30;99.90
36002;DHT22;22070;50.922;5.430;2023-04-06T04:18:21;4.30;99.90
36002;DHT22;22070;50.922;5.430;2023-04-06T04:20:47;4.30;99.90
36002;DHT22;22070;50.922;5.430;2023-04-06T04:23:13;4.40;99.90
36002;DHT22;22070;50.922;5.430;2023-04-06T04:25:38;4.40;99.90
36002;DHT22;22070;50.922;5.430;2023-04-06T04:28:04;4.40;99.90
36002;DHT22;22070;50.922;5.430;2023-04-06T04:30:30;4.40;99.90
36002;DHT22;22070;50.922;5.430;2023-04-06T04:32:56;4.50;99.90
36002;DHT22;22070;50.922;5.430;2023-04-06T04:35:21;4.50;99.90
36002;DHT22;22070;50.922;5.430;2023-04-06T04:37:47;4.50;99.90
36002;DHT22;22070;50.922;5.430;2023-04-06T04:40:13;4.50;99.90
36002;DHT22;22070;50.922;5.430;2023-04-06T04:42:39;4.50;99.90
36002;DHT22;22070;50.922;5.430;2023-04-06T04:45:05;4.40;99.90
36002;DHT22;22070;50.922;5.430;2023-04-06T04:47:31;4.40;99.90
36002;DHT22;22070;50.922;5.430;2023-04-06T04:49:57;4.50;99.90
36002;DHT22;22070;50.922;5.430;2023-04-06T04:52:23;4.50;99.90
36002;DHT22;22070;50.922;5.430;2023-04-06T04:54:48;4.40;99.90
36002;DHT22;22070;50.922;5.430;2023-04-06T04:57:14;4.40;99.90
36002;DHT22;22070;50.922;5.430;2023-04-06T04:59:40;4.50;99.90
36002;DHT22;22070;50.922;5.430;2023-04-06T05:02:05;4.50;99.90
36002;DHT22;22070;50.922;5.430;2023-04-06T05:04:31;4.50;99.90
36002;DHT22;22070;50.922;5.430;2023-04-06T05:07:06;4.50;99.90
36002;DHT22;22070;50.922;5.430;2023-04-06T05:09:32;4.60;99.90
36002;DHT22;22070;50.922;5.430;2023-04-06T05:11:59;4.60;99.90
36002;DHT22;22070;50.922;5.430;2023-04-06T05:14:25;4.60;99.90
36002;DHT22;22070;50.922;5.430;2023-04-06T05:16:51;4.70;99.90
36002;DHT22;22070;50.922;5.430;2023-04-06T05:19:17;4.70;99.90
36002;DHT22;22070;50.922;5.430;2023-04-06T05:21:43;4.80;99.90
36002;DHT22;22070;50.922;5.430;2023-04-06T05:24:08;4.90;99.90
36002;DHT22;22070;50.922;5.430;2023-04-06T05:26:34;4.90;99.90
36002;DHT22;22070;50.922;5.430;2023-04-06T05:29:01;5.00;99.90
36002;DHT22;22070;50.922;5.430;2023-04-06T05:31:26;5.00;99.90
36002;DHT22;22070;50.922;5.430;2023-04-06T05:33:52;5.00;99.90
36002;DHT22;22070;50.922;5.430;2023-04-06T05:36:18;5.00;99.90
36002;DHT22;22070;50.922;5.430;2023-04-06T05:38:43;5.10;99.90
36002;DHT22;22070;50.922;5.430;2023-04-06T05:41:09;5.00;99.90
36002;DHT22;22070;50.922;5.430;2023-04-06T05:43:35;5.10;99.90
36002;DHT22;22070;50.922;5.430;2023-04-06T05:46:00;5.10;99.90
36002;DHT22;22070;50.922;5.430;2023-04-06T05:48:26;5.20;99.90
36002;DHT22;22070;50.922;5.430;2023-04-06T05:50:52;5.30;99.90
36002;DHT22;22070;50.922;5.430;2023-04-06T05:53:18;5.40;99.90
36002;DHT22;22070;50.922;5.430;2023-04-06T05:55:46;5.40;99.90
36002;DHT22;22070;50.922;5.430;2023-04-06T05:58:12;5.40;99.90
36002;DHT22;22070;50.922;5.430;2023-04-06T06:00:37;5.40;99.90
36002;DHT22;22070;50.922;5.430;2023-04-06T06:03:03;5.40;99.90
36002;DHT22;22070;50.922;5.430;2023-04-06T06:05:29;5.40;99.90
36002;DHT22;22070;50.922;5.430;2023-04-06T06:07:55;5.40;99.90
36002;DHT22;22070;50.922;5.430;2023-04-06T06:10:21;5.50;99.90
36002;DHT22;22070;50.922;5.430;2023-04-06T06:12:47;5.50;99.90
36002;DHT22;22070;50.922;5.430;2023-04-06T06:15:12;5.60;99.90
36002;DHT22;22070;50.922;5.430;2023-04-06T06:17:38;5.80;99.90
36002;DHT22;22070;50.922;5.430;2023-04-06T06:20:08;5.90;99.90
36002;DHT22;22070;50.922;5.430;2023-04-06T06:22:34;6.00;99.90
36002;DHT22;22070;50.922;5.430;2023-04-06T06:25:00;5.90;99.90
36002;DHT22;22070;50.922;5.430;2023-04-06T06:27:25;6.00;99.90
36002;DHT22;22070;50.922;5.430;2023-04-06T06:29:51;6.00;99.90
36002;DHT22;22070;50.922;5.430;2023-04-06T06:32:17;6.00;99.90
36002;DHT22;22070;50.922;5.430;2023-04-06T06:34:43;6.00;99.90
36002;DHT22;22070;50.922;5.430;2023-04-06T06:37:09;6.10;99.90
36002;DHT22;22070;50.922;5.430;2023-04-06T06:39:35;6.00;99.90
36002;DHT22;22070;50.922;5.430;2023-04-06T06:42:00;6.10;99.90
36002;DHT22;22070;50.922;5.430;2023-04-06T06:44:27;6.10;99.90
36002;DHT22;22070;50.922;5.430;2023-04-06T06:46:53;6.20;99.90
36002;DHT22;22070;50.922;5.430;2023-04-06T06:49:19;6.20;99.90
36002;DHT22;22070;50.922;5.430;2023-04-06T06:51:45;6.20;99.90
36002;DHT22;22070;50.922;5.430;2023-04-06T06:54:12;6.30;99.90
36002;DHT22;22070;50.922;5.430;2023-04-06T06:56:38;6.30;99.90
36002;DHT22;22070;50.922;5.430;2023-04-06T06:59:06;6.30;99.90
36002;DHT22;22070;50.922;5.430;2023-04-06T07:01:33;6.40;99.90
36002;DHT22;22070;50.922;5.430;2023-04-06T07:03:59;6.50;99.90
36002;DHT22;22070;50.922;5.430;2023-04-06T07:06:25;6.70;99.90
36002;DHT22;22070;50.922;5.430;2023-04-06T07:08:51;6.80;99.90
36002;DHT22;22070;50.922;5.430;2023-04-06T07:11:16;6.80;99.90
36002;DHT22;22070;50.922;5.430;2023-04-06T07:13:42;6.90;99.90
36002;DHT22;22070;50.922;5.430;2023-04-06T07:16:08;7.00;99.90
36002;DHT22;22070;50.922;5.430;2023-04-06T07:18:34;7.10;99.90
36002;DHT22;22070;50.922;5.430;2023-04-06T07:21:00;7.20;99.90
36002;DHT22;22070;50.922;5.430;2023-04-06T07:23:25;7.30;99.90
36002;DHT22;22070;50.922;5.430;2023-04-06T07:25:51;7.40;99.90
36002;DHT22;22070;50.922;5.430;2023-04-06T07:28:19;7.40;99.90
36002;DHT22;22070;50.922;5.430;2023-04-06T07:30:44;7.50;99.90
36002;DHT22;22070;50.922;5.430;2023-04-06T07:33:10;7.60;99.90
36002;DHT22;22070;50.922;5.430;2023-04-06T07:35:36;7.70;99.90
36002;DHT22;22070;50.922;5.430;2023-04-06T07:38:02;7.80;99.90
36002;DHT22;22070;50.922;5.430;2023-04-06T07:40:28;7.80;99.90
36002;DHT22;22070;50.922;5.430;2023-04-06T07:42:53;8.00;99.90
36002;DHT22;22070;50.922;5.430;2023-04-06T07:45:19;8.10;99.90
36002;DHT22;22070;50.922;5.430;2023-04-06T07:47:45;8.20;99.90
36002;DHT22;22070;50.922;5.430;2023-04-06T07:50:12;8.50;99.90
36002;DHT22;22070;50.922;5.430;2023-04-06T07:52:38;8.50;99.90
36002;DHT22;22070;50.922;5.430;2023-04-06T07:55:04;8.60;99.90
36002;DHT22;22070;50.922;5.430;2023-04-06T07:57:30;8.70;99.90
36002;DHT22;22070;50.922;5.430;2023-04-06T07:59:56;8.70;99.90
36002;DHT22;22070;50.922;5.430;2023-04-06T08:02:21;8.80;99.90
36002;DHT22;22070;50.922;5.430;2023-04-06T08:04:47;8.80;99.90
36002;DHT22;22070;50.922;5.430;2023-04-06T08:07:13;8.80;99.90
36002;DHT22;22070;50.922;5.430;2023-04-06T08:09:39;8.80;99.90
36002;DHT22;22070;50.922;5.430;2023-04-06T08:12:05;8.90;99.90
36002;DHT22;22070;50.922;5.430;2023-04-06T08:14:31;9.10;99.90
36002;DHT22;22070;50.922;5.430;2023-04-06T08:16:56;9.20;99.90
36002;DHT22;22070;50.922;5.430;2023-04-06T08:19:22;9.20;99.90
36002;DHT22;22070;50.922;5.430;2023-04-06T08:21:48;9.10;99.90
36002;DHT22;22070;50.922;5.430;2023-04-06T08:24:14;9.10;99.90
36002;DHT22;22070;50.922;5.430;2023-04-06T08:26:40;9.10;99.90
36002;DHT22;22070;50.922;5.430;2023-04-06T08:29:06;9.30;99.90
36002;DHT22;22070;50.922;5.430;2023-04-06T08:31:35;9.30;99.90
36002;DHT22;22070;50.922;5.430;2023-04-06T08:34:02;9.40;99.90
36002;DHT22;22070;50.922;5.430;2023-04-06T08:36:28;9.40;99.90
36002;DHT22;22070;50.922;5.430;2023-04-06T08:38:54;9.50;99.90
36002;DHT22;22070;50.922;5.430;2023-04-06T08:41:20;9.40;99.90
36002;DHT22;22070;50.922;5.430;2023-04-06T08:43:52;9.40;99.90
36002;DHT22;22070;50.922;5.430;2023-04-06T08:46:21;9.60;99.90
36002;DHT22;22070;50.922;5.430;2023-04-06T08:48:47;9.70;99.90
36002;DHT22;22070;50.922;5.430;2023-04-06T08:51:15;9.90;99.90
36002;DHT22;22070;50.922;5.430;2023-04-06T08:53:41;9.90;99.90
36002;DHT22;22070;50.922;5.430;2023-04-06T08:56:07;9.90;99.90
36002;DHT22;22070;50.922;5.430;2023-04-06T08:58:39;10.00;99.90
36002;DHT22;22070;50.922;5.430;2023-04-06T09:01:10;10.10;99.90
36002;DHT22;22070;50.922;5.430;2023-04-06T09:03:38;10.00;99.90
36002;DHT22;22070;50.922;5.430;2023-04-06T09:06:08;9.80;99.90
36002;DHT22;22070;50.922;5.430;2023-04-06T09:08:35;9.90;99.90
36002;DHT22;22070;50.922;5.430;2023-04-06T09:11:04;9.90;99.90
36002;DHT22;22070;50.922;5.430;2023-04-06T09:13:30;10.00;99.90
36002;DHT22;22070;50.922;5.430;2023-04-06T09:16:01;10.10;99.90
36002;DHT22;22070;50.922;5.430;2023-04-06T09:18:31;10.00;99.90
36002;DHT22;22070;50.922;5.430;2023-04-06T09:21:01;10.00;99.90
36002;DHT22;22070;50.922;5.430;2023-04-06T09:23:27;10.00;99.90
36002;DHT22;22070;50.922;5.430;2023-04-06T09:26:08;9.90;99.90
36002;DHT22;22070;50.922;5.430;2023-04-06T09:28:48;9.80;99.90
36002;DHT22;22070;50.922;5.430;2023-04-06T09:31:16;9.80;99.90
36002;DHT22;22070;50.922;5.430;2023-04-06T09:33:44;9.80;99.90
36002;DHT22;22070;50.922;5.430;2023-04-06T09:36:10;9.90;99.90
36002;DHT22;22070;50.922;5.430;2023-04-06T09:38:57;10.00;99.90
36002;DHT22;22070;50.922;5.430;2023-04-06T09:41:28;10.00;99.90
36002;DHT22;22070;50.922;5.430;2023-04-06T09:44:11;10.00;99.90
36002;DHT22;22070;50.922;5.430;2023-04-06T09:46:39;10.10;99.90
36002;DHT22;22070;50.922;5.430;2023-04-06T09:49:06;10.20;99.90
36002;DHT22;22070;50.922;5.430;2023-04-06T09:51:36;10.20;99.90
36002;DHT22;22070;50.922;5.430;2023-04-06T09:54:02;10.20;99.90
36002;DHT22;22070;50.922;5.430;2023-04-06T09:57:11;10.30;99.90
36002;DHT22;22070;50.922;5.430;2023-04-06T10:03:01;10.30;99.90
36002;DHT22;22070;50.922;5.430;2023-04-06T10:08:02;10.10;99.90
36002;DHT22;22070;50.922;5.430;2023-04-06T10:10:30;10.10;99.90
36002;DHT22;22070;50.922;5.430;2023-04-06T10:12:56;10.10;99.90
36002;DHT22;22070;50.922;5.430;2023-04-06T10:15:23;10.00;99.90
36002;DHT22;22070;50.922;5.430;2023-04-06T10:17:49;10.00;99.90
36002;DHT22;22070;50.922;5.430;2023-04-06T10:20:23;10.00;99.90
36002;DHT22;22070;50.922;5.430;2023-04-06T10:28:10;10.20;99.90
36002;DHT22;22070;50.922;5.430;2023-04-06T10:30:42;10.00;99.90
36002;DHT22;22070;50.922;5.430;2023-04-06T10:33:19;10.10;99.90
36002;DHT22;22070;50.922;5.430;2023-04-06T10:35:45;10.20;99.90
36002;DHT22;22070;50.922;5.430;2023-04-06T10:38:11;10.00;99.90
36002;DHT22;22070;50.922;5.430;2023-04-06T10:40:40;10.10;99.90
36002;DHT22;22070;50.922;5.430;2023-04-06T10:43:11;10.10;99.90
36002;DHT22;22070;50.922;5.430;2023-04-06T10:45:38;10.20;99.90
36002;DHT22;22070;50.922;5.430;2023-04-06T10:48:15;10.10;99.90
36002;DHT22;22070;50.922;5.430;2023-04-06T10:50:46;10.10;99.90
36002;DHT22;22070;50.922;5.430;2023-04-06T10:53:27;10.30;99.90
36002;DHT22;22070;50.922;5.430;2023-04-06T10:55:56;10.30;99.90
36002;DHT22;22070;50.922;5.430;2023-04-06T10:58:28;10.30;99.90
36002;DHT22;22070;50.922;5.430;2023-04-06T11:00:55;10.20;99.90
36002;DHT22;22070;50.922;5.430;2023-04-06T11:03:21;10.20;99.90
36002;DHT22;22070;50.922;5.430;2023-04-06T11:05:49;10.20;99.90
36002;DHT22;22070;50.922;5.430;2023-04-06T11:08:29;10.00;99.90
36002;DHT22;22070;50.922;5.430;2023-04-06T11:11:06;10.00;99.90
36002;DHT22;22070;50.922;5.430;2023-04-06T11:13:54;10.10;99.90
36002;DHT22;22070;50.922;5.430;2023-04-06T11:18:57;10.20;99.90
36002;DHT22;22070;50.922;5.430;2023-04-06T11:21:33;10.20;99.90
36002;DHT22;22070;50.922;5.430;2023-04-06T11:24:17;10.20;99.90
36002;DHT22;22070;50.922;5.430;2023-04-06T11:26:58;10.20;99.90
36002;DHT22;22070;50.922;5.430;2023-04-06T11:29:28;10.20;99.90
36002;DHT22;22070;50.922;5.430;2023-04-06T11:32:05;10.20;99.90
36002;DHT22;22070;50.922;5.430;2023-04-06T11:34:34;10.10;99.90
36002;DHT22;22070;50.922;5.430;2023-04-06T11:37:08;10.10;99.90
36002;DHT22;22070;50.922;5.430;2023-04-06T11:39:44;10.00;99.90
36002;DHT22;22070;50.922;5.430;2023-04-06T11:42:12;10.10;99.90
36002;DHT22;22070;50.922;5.430;2023-04-06T11:44:42;10.00;99.90
36002;DHT22;22070;50.922;5.430;2023-04-06T11:47:11;9.80;99.90
36002;DHT22;22070;50.922;5.430;2023-04-06T11:49:41;9.70;99.90
36002;DHT22;22070;50.922;5.430;2023-04-06T11:52:24;9.60;99.90
36002;DHT22;22070;50.922;5.430;2023-04-06T11:54:51;9.50;99.90
36002;DHT22;22070;50.922;5.430;2023-04-06T11:57:18;9.60;99.90
36002;DHT22;22070;50.922;5.430;2023-04-06T11:59:45;9.60;99.90
36002;DHT22;22070;50.922;5.430;2023-04-06T12:02:10;9.60;99.90
36002;DHT22;22070;50.922;5.430;2023-04-06T12:04:36;9.60;99.90
36002;DHT22;22070;50.922;5.430;2023-04-06T12:07:03;9.70;99.90
36002;DHT22;22070;50.922;5.430;2023-04-06T12:09:29;9.70;99.90
36002;DHT22;22070;50.922;5.430;2023-04-06T12:11:55;9.60;99.90
36002;DHT22;22070;50.922;5.430;2023-04-06T12:14:22;9.60;99.90
36002;DHT22;22070;50.922;5.430;2023-04-06T12:16:48;9.70;99.90
36002;DHT22;22070;50.922;5.430;2023-04-06T12:19:13;9.60;99.90
36002;DHT22;22070;50.922;5.430;2023-04-06T12:21:39;9.70;99.90
36002;DHT22;22070;50.922;5.430;2023-04-06T12:24:06;9.70;99.90
36002;DHT22;22070;50.922;5.430;2023-04-06T12:26:33;9.70;99.90
36002;DHT22;22070;50.922;5.430;2023-04-06T12:28:59;9.70;99.90
36002;DHT22;22070;50.922;5.430;2023-04-06T12:31:34;9.70;99.90
36002;DHT22;22070;50.922;5.430;2023-04-06T12:34:00;9.80;99.90
36002;DHT22;22070;50.922;5.430;2023-04-06T12:36:28;9.90;99.90
36002;DHT22;22070;50.922;5.430;2023-04-06T12:38:55;9.90;99.90
36002;DHT22;22070;50.922;5.430;2023-04-06T12:41:21;9.90;99.90
36002;DHT22;22070;50.922;5.430;2023-04-06T12:43:48;10.00;99.90
36002;DHT22;22070;50.922;5.430;2023-04-06T12:46:16;10.00;99.90
36002;DHT22;22070;50.922;5.430;2023-04-06T12:48:41;10.00;99.90
36002;DHT22;22070;50.922;5.430;2023-04-06T12:51:07;10.00;99.90
36002;DHT22;22070;50.922;5.430;2023-04-06T12:53:34;10.00;99.90
36002;DHT22;22070;50.922;5.430;2023-04-06T12:56:02;10.00;99.90
36002;DHT22;22070;50.922;5.430;2023-04-06T12:58:28;9.90;99.90
36002;DHT22;22070;50.922;5.430;2023-04-06T13:00:55;10.00;99.90
36002;DHT22;22070;50.922;5.430;2023-04-06T13:03:21;9.90;99.90
36002;DHT22;22070;50.922;5.430;2023-04-06T13:05:48;9.90;99.90
36002;DHT22;22070;50.922;5.430;2023-04-06T13:08:14;10.00;99.90
36002;DHT22;22070;50.922;5.430;2023-04-06T13:10:47;10.00;99.90
36002;DHT22;22070;50.922;5.430;2023-04-06T13:13:16;9.90;99.90
36002;DHT22;22070;50.922;5.430;2023-04-06T13:15:42;9.90;99.90
36002;DHT22;22070;50.922;5.430;2023-04-06T13:18:09;9.80;99.90
36002;DHT22;22070;50.922;5.430;2023-04-06T13:20:35;9.90;99.90
36002;DHT22;22070;50.922;5.430;2023-04-06T13:23:01;9.80;99.90
36002;DHT22;22070;50.922;5.430;2023-04-06T13:25:27;9.80;99.90
36002;DHT22;22070;50.922;5.430;2023-04-06T13:27:53;9.90;99.90
36002;DHT22;22070;50.922;5.430;2023-04-06T13:30:20;9.90;99.90
36002;DHT22;22070;50.922;5.430;2023-04-06T13:32:46;9.90;99.90
36002;DHT22;22070;50.922;5.430;2023-04-06T13:35:11;9.90;99.90
36002;DHT22;22070;50.922;5.430;2023-04-06T13:37:37;10.00;99.90
36002;DHT22;22070;50.922;5.430;2023-04-06T13:40:04;9.90;99.90
36002;DHT22;22070;50.922;5.430;2023-04-06T13:42:30;10.00;99.90
36002;DHT22;22070;50.922;5.430;2023-04-06T13:44:56;10.00;99.90
36002;DHT22;22070;50.922;5.430;2023-04-06T13:47:22;10.00;99.90
36002;DHT22;22070;50.922;5.430;2023-04-06T13:49:50;10.10;99.90
36002;DHT22;22070;50.922;5.430;2023-04-06T13:52:16;10.20;99.90
36002;DHT22;22070;50.922;5.430;2023-04-06T13:54:42;10.20;99.90
36002;DHT22;22070;50.922;5.430;2023-04-06T13:57:08;10.20;99.90
36002;DHT22;22070;50.922;5.430;2023-04-06T13:59:35;10.20;99.90
36002;DHT22;22070;50.922;5.430;2023-04-06T14:02:05;10.20;99.90
36002;DHT22;22070;50.922;5.430;2023-04-06T14:04:31;10.30;99.90
36002;DHT22;22070;50.922;5.430;2023-04-06T14:06:57;10.20;99.90
36002;DHT22;22070;50.922;5.430;2023-04-06T14:09:23;10.20;99.90
36002;DHT22;22070;50.922;5.430;2023-04-06T14:11:49;10.00;99.90
36002;DHT22;22070;50.922;5.430;2023-04-06T14:14:15;9.80;99.90
36002;DHT22;22070;50.922;5.430;2023-04-06T14:16:42;9.90;99.90
36002;DHT22;22070;50.922;5.430;2023-04-06T14:19:12;9.90;99.90
36002;DHT22;22070;50.922;5.430;2023-04-06T14:21:38;9.90;99.90
36002;DHT22;22070;50.922;5.430;2023-04-06T14:24:06;9.80;99.90
36002;DHT22;22070;50.922;5.430;2023-04-06T14:26:32;9.80;99.90
36002;DHT22;22070;50.922;5.430;2023-04-06T14:29:02;9.80;99.90
36002;DHT22;22070;50.922;5.430;2023-04-06T14:31:27;9.60;99.90
36002;DHT22;22070;50.922;5.430;2023-04-06T14:33:54;9.60;99.90
36002;DHT22;22070;50.922;5.430;2023-04-06T14:36:20;9.60;99.90
36002;DHT22;22070;50.922;5.430;2023-04-06T14:38:45;9.60;99.90
36002;DHT22;22070;50.922;5.430;2023-04-06T14:41:22;9.70;99.90
36002;DHT22;22070;50.922;5.430;2023-04-06T14:43:49;9.80;99.90
36002;DHT22;22070;50.922;5.430;2023-04-06T14:46:14;9.80;99.90
36002;DHT22;22070;50.922;5.430;2023-04-06T14:48:44;9.90;99.90
36002;DHT22;22070;50.922;5.430;2023-04-06T14:51:10;9.70;99.90
36002;DHT22;22070;50.922;5.430;2023-04-06T14:53:36;9.70;99.90
36002;DHT22;22070;50.922;5.430;2023-04-06T14:56:02;9.70;99.90
36002;DHT22;22070;50.922;5.430;2023-04-06T14:58:28;9.70;99.90
36002;DHT22;22070;50.922;5.430;2023-04-06T15:00:59;9.80;99.90
36002;DHT22;22070;50.922;5.430;2023-04-06T15:03:26;9.80;99.90
36002;DHT22;22070;50.922;5.430;2023-04-06T15:05:55;9.80;99.90
36002;DHT22;22070;50.922;5.430;2023-04-06T15:08:22;9.80;99.90
36002;DHT22;22070;50.922;5.430;2023-04-06T15:10:48;9.80;99.90
36002;DHT22;22070;50.922;5.430;2023-04-06T15:13:14;9.80;99.90
36002;DHT22;22070;50.922;5.430;2023-04-06T15:15:41;9.90;99.90
36002;DHT22;22070;50.922;5.430;2023-04-06T15:18:07;9.80;99.90
36002;DHT22;22070;50.922;5.430;2023-04-06T15:20:33;9.80;99.90
36002;DHT22;22070;50.922;5.430;2023-04-06T15:23:00;9.70;99.90
36002;DHT22;22070;50.922;5.430;2023-04-06T15:25:26;9.60;99.90
36002;DHT22;22070;50.922;5.430;2023-04-06T15:27:51;9.50;99.90
36002;DHT22;22070;50.922;5.430;2023-04-06T15:30:17;9.40;99.90
36002;DHT22;22070;50.922;5.430;2023-04-06T15:32:58;9.40;99.90
36002;DHT22;22070;50.922;5.430;2023-04-06T15:35:26;9.40;99.90
36002;DHT22;22070;50.922;5.430;2023-04-06T15:37:54;9.40;99.90
36002;DHT22;22070;50.922;5.430;2023-04-06T15:40:19;9.50;99.90
36002;DHT22;22070;50.922;5.430;2023-04-06T15:42:45;9.40;99.90
36002;DHT22;22070;50.922;5.430;2023-04-06T15:45:11;9.40;99.90
36002;DHT22;22070;50.922;5.430;2023-04-06T15:47:38;9.40;99.90
36002;DHT22;22070;50.922;5.430;2023-04-06T15:50:04;9.40;99.90
36002;DHT22;22070;50.922;5.430;2023-04-06T15:52:30;9.40;99.90
36002;DHT22;22070;50.922;5.430;2023-04-06T15:54:56;9.50;99.90